sensor_id;sensor_type;location;lat;lon;timestamp;P1;durP1;ratioP1;P2;durP2;ratioP2
11522;SDS011;70090;43.208;27.904;2023-07-20T00:00:58;7.43;;;6.73;;
11522;SDS011;70090;43.208;27.904;2023-07-20T00:03:24;7.50;;;6.67;;
11522;SDS011;70090;43.208;27.904;2023-07-20T00:05:51;7.80;;;7.10;;
11522;SDS011;70090;43.208;27.904;2023-07-20T00:08:18;9.17;;;7.27;;
11522;SDS011;70090;43.208;27.904;2023-07-20T00:10:46;9.53;;;7.00;;
11522;SDS011;70090;43.208;27.904;2023-07-20T00:13:13;7.67;;;6.80;;
11522;SDS011;70090;43.208;27.904;2023-07-20T00:15:41;8.07;;;7.27;;
11522;SDS011;70090;43.208;27.904;2023-07-20T00:18:08;7.30;;;6.63;;
11522;SDS011;70090;43.208;27.904;2023-07-20T00:20:34;8.93;;;7.37;;
11522;SDS011;70090;43.208;27.904;2023-07-20T00:23:01;8.07;;;7.07;;
11522;SDS011;70090;43.208;27.904;2023-07-20T00:25:28;7.77;;;7.07;;
11522;SDS011;70090;43.208;27.904;2023-07-20T00:27:56;7.43;;;6.73;;
11522;SDS011;70090;43.208;27.904;2023-07-20T00:30:23;9.10;;;7.30;;
11522;SDS011;70090;43.208;27.904;2023-07-20T00:32:50;7.67;;;6.90;;
11522;SDS011;70090;43.208;27.904;2023-07-20T00:35:17;8.30;;;6.90;;
11522;SDS011;70090;43.208;27.904;2023-07-20T00:37:44;10.43;;;7.37;;
11522;SDS011;70090;43.208;27.904;2023-07-20T00:40:11;8.17;;;7.47;;
11522;SDS011;70090;43.208;27.904;2023-07-20T00:42:37;8.73;;;7.63;;
11522;SDS011;70090;43.208;27.904;2023-07-20T00:45:06;9.13;;;8.17;;
11522;SDS011;70090;43.208;27.904;2023-07-20T00:47:33;10.17;;;8.30;;
11522;SDS011;70090;43.208;27.904;2023-07-20T00:50:00;8.73;;;7.43;;
11522;SDS011;70090;43.208;27.904;2023-07-20T00:52:28;8.40;;;7.20;;
11522;SDS011;70090;43.208;27.904;2023-07-20T00:54:56;9.70;;;7.70;;
11522;SDS011;70090;43.208;27.904;2023-07-20T00:57:23;9.03;;;7.77;;
11522;SDS011;70090;43.208;27.904;2023-07-20T00:59:51;9.07;;;8.20;;
11522;SDS011;70090;43.208;27.904;2023-07-20T01:02:19;8.50;;;7.70;;
11522;SDS011;70090;43.208;27.904;2023-07-20T01:04:46;9.00;;;8.17;;
11522;SDS011;70090;43.208;27.904;2023-07-20T01:07:14;9.37;;;8.47;;
11522;SDS011;70090;43.208;27.904;2023-07-20T01:09:57;9.60;;;8.57;;
11522;SDS011;70090;43.208;27.904;2023-07-20T01:12:30;10.10;;;9.10;;
11522;SDS011;70090;43.208;27.904;2023-07-20T01:15:02;10.00;;;8.63;;
11522;SDS011;70090;43.208;27.904;2023-07-20T01:17:31;9.87;;;8.50;;
11522;SDS011;70090;43.208;27.904;2023-07-20T01:19:58;11.50;;;9.37;;
11522;SDS011;70090;43.208;27.904;2023-07-20T01:22:31;10.27;;;9.17;;
11522;SDS011;70090;43.208;27.904;2023-07-20T01:25:18;11.23;;;9.23;;
11522;SDS011;70090;43.208;27.904;2023-07-20T01:28:12;11.87;;;8.97;;
11522;SDS011;70090;43.208;27.904;2023-07-20T01:31:14;9.30;;;8.40;;
11522;SDS011;70090;43.208;27.904;2023-07-20T01:33:52;9.27;;;8.37;;
11522;SDS011;70090;43.208;27.904;2023-07-20T01:36:21;9.67;;;8.70;;
11522;SDS011;70090;43.208;27.904;2023-07-20T01:38:50;8.93;;;8.10;;
11522;SDS011;70090;43.208;27.904;2023-07-20T01:41:18;8.47;;;7.70;;
11522;SDS011;70090;43.208;27.904;2023-07-20T01:43:45;9.63;;;8.77;;
11522;SDS011;70090;43.208;27.904;2023-07-20T01:46:12;10.40;;;9.40;;
11522;SDS011;70090;43.208;27.904;2023-07-20T01:48:41;11.43;;;10.33;;
11522;SDS011;70090;43.208;27.904;2023-07-20T01:51:07;13.17;;;11.27;;
11522;SDS011;70090;43.208;27.904;2023-07-20T01:53:34;13.33;;;11.80;;
11522;SDS011;70090;43.208;27.904;2023-07-20T01:56:01;13.17;;;11.40;;
11522;SDS011;70090;43.208;27.904;2023-07-20T01:58:28;15.00;;;12.20;;
11522;SDS011;70090;43.208;27.904;2023-07-20T02:00:55;14.17;;;12.67;;
11522;SDS011;70090;43.208;27.904;2023-07-20T02:03:22;15.13;;;13.37;;
11522;SDS011;70090;43.208;27.904;2023-07-20T02:05:53;15.47;;;13.23;;
11522;SDS011;70090;43.208;27.904;2023-07-20T02:08:20;13.73;;;12.33;;
11522;SDS011;70090;43.208;27.904;2023-07-20T02:10:46;14.23;;;12.73;;
11522;SDS011;70090;43.208;27.904;2023-07-20T02:13:13;14.73;;;12.33;;
11522;SDS011;70090;43.208;27.904;2023-07-20T02:15:41;13.77;;;12.10;;
11522;SDS011;70090;43.208;27.904;2023-07-20T02:18:08;12.00;;;10.80;;
11522;SDS011;70090;43.208;27.904;2023-07-20T02:20:35;13.47;;;10.43;;
11522;SDS011;70090;43.208;27.904;2023-07-20T02:23:03;13.43;;;9.80;;
11522;SDS011;70090;43.208;27.904;2023-07-20T02:25:30;15.30;;;9.50;;
11522;SDS011;70090;43.208;27.904;2023-07-20T02:27:57;9.70;;;8.70;;
11522;SDS011;70090;43.208;27.904;2023-07-20T02:30:24;9.90;;;8.90;;
11522;SDS011;70090;43.208;27.904;2023-07-20T02:32:52;8.60;;;7.80;;
11522;SDS011;70090;43.208;27.904;2023-07-20T02:35:19;13.00;;;8.27;;
11522;SDS011;70090;43.208;27.904;2023-07-20T02:37:46;9.00;;;8.17;;
11522;SDS011;70090;43.208;27.904;2023-07-20T02:40:14;9.03;;;8.23;;
11522;SDS011;70090;43.208;27.904;2023-07-20T02:42:41;11.87;;;8.60;;
11522;SDS011;70090;43.208;27.904;2023-07-20T02:45:08;10.67;;;8.63;;
11522;SDS011;70090;43.208;27.904;2023-07-20T02:47:35;10.63;;;8.67;;
11522;SDS011;70090;43.208;27.904;2023-07-20T02:50:02;9.73;;;8.83;;
11522;SDS011;70090;43.208;27.904;2023-07-20T02:52:29;12.47;;;9.40;;
11522;SDS011;70090;43.208;27.904;2023-07-20T02:54:56;10.73;;;9.73;;
11522;SDS011;70090;43.208;27.904;2023-07-20T02:57:24;14.87;;;10.30;;
11522;SDS011;70090;43.208;27.904;2023-07-20T02:59:52;11.07;;;10.03;;
11522;SDS011;70090;43.208;27.904;2023-07-20T03:02:19;13.37;;;10.13;;
11522;SDS011;70090;43.208;27.904;2023-07-20T03:04:45;11.63;;;10.17;;
11522;SDS011;70090;43.208;27.904;2023-07-20T03:07:12;11.77;;;10.53;;
11522;SDS011;70090;43.208;27.904;2023-07-20T03:09:39;13.43;;;10.83;;
11522;SDS011;70090;43.208;27.904;2023-07-20T03:12:06;12.70;;;10.37;;
11522;SDS011;70090;43.208;27.904;2023-07-20T03:14:35;14.93;;;10.97;;
11522;SDS011;70090;43.208;27.904;2023-07-20T03:17:02;13.93;;;11.23;;
11522;SDS011;70090;43.208;27.904;2023-07-20T03:19:29;16.23;;;11.27;;
11522;SDS011;70090;43.208;27.904;2023-07-20T03:21:56;13.33;;;11.20;;
11522;SDS011;70090;43.208;27.904;2023-07-20T03:24:23;17.20;;;11.53;;
11522;SDS011;70090;43.208;27.904;2023-07-20T03:26:50;14.57;;;11.53;;
11522;SDS011;70090;43.208;27.904;2023-07-20T03:29:17;14.00;;;11.03;;
11522;SDS011;70090;43.208;27.904;2023-07-20T03:31:46;14.70;;;11.17;;
11522;SDS011;70090;43.208;27.904;2023-07-20T03:34:13;13.23;;;10.70;;
11522;SDS011;70090;43.208;27.904;2023-07-20T03:36:40;13.37;;;9.70;;
11522;SDS011;70090;43.208;27.904;2023-07-20T03:39:06;11.23;;;10.03;;
11522;SDS011;70090;43.208;27.904;2023-07-20T03:41:33;15.20;;;10.17;;
11522;SDS011;70090;43.208;27.904;2023-07-20T03:44:00;16.40;;;9.93;;
11522;SDS011;70090;43.208;27.904;2023-07-20T03:46:27;11.87;;;9.50;;
11522;SDS011;70090;43.208;27.904;2023-07-20T03:48:55;12.07;;;10.20;;
11522;SDS011;70090;43.208;27.904;2023-07-20T03:51:22;11.83;;;9.93;;
11522;SDS011;70090;43.208;27.904;2023-07-20T03:53:49;12.50;;;9.83;;
11522;SDS011;70090;43.208;27.904;2023-07-20T03:56:16;29.03;;;10.27;;
11522;SDS011;70090;43.208;27.904;2023-07-20T03:58:42;14.77;;;10.03;;
11522;SDS011;70090;43.208;27.904;2023-07-20T04:01:09;15.40;;;9.87;;
11522;SDS011;70090;43.208;27.904;2023-07-20T04:03:36;19.20;;;10.37;;
11522;SDS011;70090;43.208;27.904;2023-07-20T04:06:04;16.43;;;10.00;;
11522;SDS011;70090;43.208;27.904;2023-07-20T04:08:31;14.83;;;10.10;;
11522;SDS011;70090;43.208;27.904;2023-07-20T04:11:00;21.07;;;10.57;;
11522;SDS011;70090;43.208;27.904;2023-07-20T04:13:27;13.43;;;9.53;;
11522;SDS011;70090;43.208;27.904;2023-07-20T04:15:59;17.63;;;10.10;;
11522;SDS011;70090;43.208;27.904;2023-07-20T04:18:27;17.17;;;9.80;;
11522;SDS011;70090;43.208;27.904;2023-07-20T04:20:54;20.93;;;10.03;;
11522;SDS011;70090;43.208;27.904;2023-07-20T04:23:22;23.90;;;9.93;;
11522;SDS011;70090;43.208;27.904;2023-07-20T04:25:49;18.73;;;10.30;;
11522;SDS011;70090;43.208;27.904;2023-07-20T04:28:17;16.00;;;9.57;;
11522;SDS011;70090;43.208;27.904;2023-07-20T04:30:43;16.27;;;9.43;;
11522;SDS011;70090;43.208;27.904;2023-07-20T04:33:10;20.57;;;9.73;;
11522;SDS011;70090;43.208;27.904;2023-07-20T04:35:47;22.37;;;9.60;;
11522;SDS011;70090;43.208;27.904;2023-07-20T04:38:15;24.30;;;10.47;;
11522;SDS011;70090;43.208;27.904;2023-07-20T04:40:44;12.83;;;8.43;;
11522;SDS011;70090;43.208;27.904;2023-07-20T04:43:12;19.87;;;9.03;;
11522;SDS011;70090;43.208;27.904;2023-07-20T04:45:39;17.20;;;9.00;;
11522;SDS011;70090;43.208;27.904;2023-07-20T04:48:08;20.63;;;9.30;;
11522;SDS011;70090;43.208;27.904;2023-07-20T04:50:36;17.37;;;9.00;;
11522;SDS011;70090;43.208;27.904;2023-07-20T04:53:03;19.20;;;8.80;;
11522;SDS011;70090;43.208;27.904;2023-07-20T04:55:30;20.50;;;9.83;;
11522;SDS011;70090;43.208;27.904;2023-07-20T04:58:00;19.97;;;9.33;;
11522;SDS011;70090;43.208;27.904;2023-07-20T05:00:27;17.27;;;9.27;;
11522;SDS011;70090;43.208;27.904;2023-07-20T05:02:54;17.33;;;8.90;;
11522;SDS011;70090;43.208;27.904;2023-07-20T05:05:21;16.30;;;9.07;;
11522;SDS011;70090;43.208;27.904;2023-07-20T05:07:48;16.97;;;9.10;;
11522;SDS011;70090;43.208;27.904;2023-07-20T05:10:15;21.50;;;9.60;;
11522;SDS011;70090;43.208;27.904;2023-07-20T05:12:42;18.90;;;9.10;;
11522;SDS011;70090;43.208;27.904;2023-07-20T05:15:11;15.17;;;9.47;;
11522;SDS011;70090;43.208;27.904;2023-07-20T05:17:37;24.83;;;7.60;;
11522;SDS011;70090;43.208;27.904;2023-07-20T05:20:05;19.40;;;8.60;;
11522;SDS011;70090;43.208;27.904;2023-07-20T05:22:35;20.30;;;8.37;;
11522;SDS011;70090;43.208;27.904;2023-07-20T05:25:05;22.77;;;8.73;;
11522;SDS011;70090;43.208;27.904;2023-07-20T05:27:33;18.23;;;8.23;;
11522;SDS011;70090;43.208;27.904;2023-07-20T05:30:00;24.03;;;9.30;;
11522;SDS011;70090;43.208;27.904;2023-07-20T05:32:29;19.60;;;9.17;;
11522;SDS011;70090;43.208;27.904;2023-07-20T05:34:55;21.23;;;8.60;;
11522;SDS011;70090;43.208;27.904;2023-07-20T05:37:22;19.80;;;8.10;;
11522;SDS011;70090;43.208;27.904;2023-07-20T05:39:49;25.00;;;7.90;;
11522;SDS011;70090;43.208;27.904;2023-07-20T05:42:16;16.33;;;8.13;;
11522;SDS011;70090;43.208;27.904;2023-07-20T05:44:43;15.53;;;8.03;;
11522;SDS011;70090;43.208;27.904;2023-07-20T05:47:10;18.07;;;8.30;;
11522;SDS011;70090;43.208;27.904;2023-07-20T05:49:38;18.57;;;8.23;;
11522;SDS011;70090;43.208;27.904;2023-07-20T05:52:05;20.07;;;8.73;;
11522;SDS011;70090;43.208;27.904;2023-07-20T05:54:32;17.23;;;8.67;;
11522;SDS011;70090;43.208;27.904;2023-07-20T05:56:59;21.63;;;9.43;;
11522;SDS011;70090;43.208;27.904;2023-07-20T05:59:26;12.57;;;8.43;;
11522;SDS011;70090;43.208;27.904;2023-07-20T06:01:54;19.90;;;9.13;;
11522;SDS011;70090;43.208;27.904;2023-07-20T06:04:21;14.87;;;8.60;;
11522;SDS011;70090;43.208;27.904;2023-07-20T06:06:49;13.40;;;7.93;;
11522;SDS011;70090;43.208;27.904;2023-07-20T06:09:16;13.90;;;8.03;;
11522;SDS011;70090;43.208;27.904;2023-07-20T06:11:43;22.03;;;8.47;;
11522;SDS011;70090;43.208;27.904;2023-07-20T06:14:10;21.20;;;8.77;;
11522;SDS011;70090;43.208;27.904;2023-07-20T06:16:37;18.57;;;8.70;;
11522;SDS011;70090;43.208;27.904;2023-07-20T06:19:04;18.70;;;9.33;;
11522;SDS011;70090;43.208;27.904;2023-07-20T06:21:31;21.63;;;9.60;;
11522;SDS011;70090;43.208;27.904;2023-07-20T06:23:59;16.13;;;9.53;;
11522;SDS011;70090;43.208;27.904;2023-07-20T06:26:26;22.47;;;10.27;;
11522;SDS011;70090;43.208;27.904;2023-07-20T06:28:53;19.10;;;9.63;;
11522;SDS011;70090;43.208;27.904;2023-07-20T06:31:20;21.80;;;8.77;;
11522;SDS011;70090;43.208;27.904;2023-07-20T06:33:47;13.73;;;6.47;;
11522;SDS011;70090;43.208;27.904;2023-07-20T06:36:15;15.37;;;4.67;;
11522;SDS011;70090;43.208;27.904;2023-07-20T06:38:44;21.43;;;4.80;;
11522;SDS011;70090;43.208;27.904;2023-07-20T06:41:12;16.50;;;4.67;;
11522;SDS011;70090;43.208;27.904;2023-07-20T06:43:39;13.87;;;5.00;;
11522;SDS011;70090;43.208;27.904;2023-07-20T06:46:06;9.50;;;4.10;;
11522;SDS011;70090;43.208;27.904;2023-07-20T06:48:33;12.83;;;4.53;;
11522;SDS011;70090;43.208;27.904;2023-07-20T06:51:00;15.70;;;5.00;;
11522;SDS011;70090;43.208;27.904;2023-07-20T06:53:27;15.23;;;5.07;;
11522;SDS011;70090;43.208;27.904;2023-07-20T06:55:54;11.80;;;4.63;;
11522;SDS011;70090;43.208;27.904;2023-07-20T06:58:24;10.53;;;4.37;;
11522;SDS011;70090;43.208;27.904;2023-07-20T07:00:51;16.03;;;4.93;;
11522;SDS011;70090;43.208;27.904;2023-07-20T07:03:18;14.13;;;4.80;;
11522;SDS011;70090;43.208;27.904;2023-07-20T07:05:46;14.87;;;4.97;;
11522;SDS011;70090;43.208;27.904;2023-07-20T07:08:13;9.47;;;4.27;;
11522;SDS011;70090;43.208;27.904;2023-07-20T07:10:40;12.43;;;4.47;;
11522;SDS011;70090;43.208;27.904;2023-07-20T07:13:06;14.13;;;4.73;;
11522;SDS011;70090;43.208;27.904;2023-07-20T07:15:35;11.90;;;4.10;;
11522;SDS011;70090;43.208;27.904;2023-07-20T07:18:01;10.57;;;4.60;;
11522;SDS011;70090;43.208;27.904;2023-07-20T07:20:28;13.10;;;4.80;;
11522;SDS011;70090;43.208;27.904;2023-07-20T07:22:55;11.40;;;4.63;;
11522;SDS011;70090;43.208;27.904;2023-07-20T07:25:22;13.90;;;4.87;;
11522;SDS011;70090;43.208;27.904;2023-07-20T07:27:49;10.20;;;4.07;;
11522;SDS011;70090;43.208;27.904;2023-07-20T07:30:17;13.13;;;4.60;;
11522;SDS011;70090;43.208;27.904;2023-07-20T07:32:45;10.23;;;4.20;;
11522;SDS011;70090;43.208;27.904;2023-07-20T07:35:12;11.40;;;4.70;;
11522;SDS011;70090;43.208;27.904;2023-07-20T07:37:39;14.53;;;4.80;;
11522;SDS011;70090;43.208;27.904;2023-07-20T07:40:06;14.70;;;4.80;;
11522;SDS011;70090;43.208;27.904;2023-07-20T07:42:34;13.73;;;5.00;;
11522;SDS011;70090;43.208;27.904;2023-07-20T07:45:01;12.30;;;4.70;;
11522;SDS011;70090;43.208;27.904;2023-07-20T07:47:28;13.70;;;4.93;;
11522;SDS011;70090;43.208;27.904;2023-07-20T07:49:56;14.07;;;4.70;;
11522;SDS011;70090;43.208;27.904;2023-07-20T07:52:23;10.37;;;4.20;;
11522;SDS011;70090;43.208;27.904;2023-07-20T07:54:50;10.10;;;4.40;;
11522;SDS011;70090;43.208;27.904;2023-07-20T07:57:17;7.17;;;3.90;;
11522;SDS011;70090;43.208;27.904;2023-07-20T07:59:44;12.37;;;3.73;;
11522;SDS011;70090;43.208;27.904;2023-07-20T08:02:10;9.43;;;4.03;;
11522;SDS011;70090;43.208;27.904;2023-07-20T08:04:37;11.00;;;4.20;;
11522;SDS011;70090;43.208;27.904;2023-07-20T08:07:05;8.97;;;3.67;;
11522;SDS011;70090;43.208;27.904;2023-07-20T08:09:32;11.47;;;3.40;;
11522;SDS011;70090;43.208;27.904;2023-07-20T08:11:59;8.20;;;3.70;;
11522;SDS011;70090;43.208;27.904;2023-07-20T08:14:26;6.97;;;3.67;;
11522;SDS011;70090;43.208;27.904;2023-07-20T08:16:53;8.93;;;3.50;;
11522;SDS011;70090;43.208;27.904;2023-07-20T08:19:20;7.80;;;3.33;;
11522;SDS011;70090;43.208;27.904;2023-07-20T08:21:47;9.13;;;3.60;;
11522;SDS011;70090;43.208;27.904;2023-07-20T08:24:15;9.70;;;3.70;;
11522;SDS011;70090;43.208;27.904;2023-07-20T08:26:42;6.57;;;3.70;;
11522;SDS011;70090;43.208;27.904;2023-07-20T08:29:09;9.77;;;3.87;;
11522;SDS011;70090;43.208;27.904;2023-07-20T08:31:36;11.33;;;4.00;;
11522;SDS011;70090;43.208;27.904;2023-07-20T08:34:02;11.57;;;4.27;;
11522;SDS011;70090;43.208;27.904;2023-07-20T08:36:29;12.63;;;4.20;;
11522;SDS011;70090;43.208;27.904;2023-07-20T08:38:57;9.57;;;3.47;;
11522;SDS011;70090;43.208;27.904;2023-07-20T08:41:26;10.10;;;4.47;;
11522;SDS011;70090;43.208;27.904;2023-07-20T08:43:53;11.63;;;5.00;;
11522;SDS011;70090;43.208;27.904;2023-07-20T08:46:22;12.57;;;4.73;;
11522;SDS011;70090;43.208;27.904;2023-07-20T08:48:51;11.03;;;4.63;;
11522;SDS011;70090;43.208;27.904;2023-07-20T08:51:18;10.20;;;4.50;;
11522;SDS011;70090;43.208;27.904;2023-07-20T08:53:47;10.10;;;4.70;;
11522;SDS011;70090;43.208;27.904;2023-07-20T08:56:14;9.90;;;4.57;;
11522;SDS011;70090;43.208;27.904;2023-07-20T08:58:44;10.77;;;4.33;;
11522;SDS011;70090;43.208;27.904;2023-07-20T09:01:12;8.53;;;5.03;;
11522;SDS011;70090;43.208;27.904;2023-07-20T09:03:39;13.47;;;5.13;;
11522;SDS011;70090;43.208;27.904;2023-07-20T09:06:08;9.23;;;4.77;;
11522;SDS011;70090;43.208;27.904;2023-07-20T09:08:37;9.77;;;4.67;;
11522;SDS011;70090;43.208;27.904;2023-07-20T09:11:04;12.57;;;4.93;;
11522;SDS011;70090;43.208;27.904;2023-07-20T09:13:32;11.00;;;5.00;;
11522;SDS011;70090;43.208;27.904;2023-07-20T09:16:00;8.10;;;4.50;;
11522;SDS011;70090;43.208;27.904;2023-07-20T09:18:29;11.77;;;4.43;;
11522;SDS011;70090;43.208;27.904;2023-07-20T09:20:57;8.87;;;4.80;;
11522;SDS011;70090;43.208;27.904;2023-07-20T09:23:29;14.20;;;4.80;;
11522;SDS011;70090;43.208;27.904;2023-07-20T09:25:57;10.03;;;4.67;;
11522;SDS011;70090;43.208;27.904;2023-07-20T09:28:24;12.23;;;4.80;;
11522;SDS011;70090;43.208;27.904;2023-07-20T09:30:52;9.97;;;4.53;;
11522;SDS011;70090;43.208;27.904;2023-07-20T09:33:23;10.77;;;4.43;;
11522;SDS011;70090;43.208;27.904;2023-07-20T09:35:51;9.47;;;4.50;;
11522;SDS011;70090;43.208;27.904;2023-07-20T09:38:18;11.33;;;4.63;;
11522;SDS011;70090;43.208;27.904;2023-07-20T09:40:45;8.43;;;4.43;;
11522;SDS011;70090;43.208;27.904;2023-07-20T09:43:12;7.93;;;4.40;;
11522;SDS011;70090;43.208;27.904;2023-07-20T09:45:40;12.60;;;4.70;;
11522;SDS011;70090;43.208;27.904;2023-07-20T09:48:08;7.80;;;4.70;;
11522;SDS011;70090;43.208;27.904;2023-07-20T09:50:40;7.83;;;4.90;;
11522;SDS011;70090;43.208;27.904;2023-07-20T09:53:09;10.33;;;5.13;;
11522;SDS011;70090;43.208;27.904;2023-07-20T09:55:38;10.50;;;4.87;;
11522;SDS011;70090;43.208;27.904;2023-07-20T09:58:07;10.67;;;4.80;;
11522;SDS011;70090;43.208;27.904;2023-07-20T10:00:36;10.47;;;5.07;;
11522;SDS011;70090;43.208;27.904;2023-07-20T10:03:04;10.37;;;5.27;;
11522;SDS011;70090;43.208;27.904;2023-07-20T10:05:32;12.33;;;5.07;;
11522;SDS011;70090;43.208;27.904;2023-07-20T10:08:02;8.27;;;4.57;;
11522;SDS011;70090;43.208;27.904;2023-07-20T10:10:32;7.17;;;4.50;;
11522;SDS011;70090;43.208;27.904;2023-07-20T10:13:00;9.03;;;4.60;;
11522;SDS011;70090;43.208;27.904;2023-07-20T10:15:29;10.57;;;5.00;;
11522;SDS011;70090;43.208;27.904;2023-07-20T10:18:02;7.77;;;4.63;;
11522;SDS011;70090;43.208;27.904;2023-07-20T10:20:35;7.73;;;4.97;;
11522;SDS011;70090;43.208;27.904;2023-07-20T10:23:07;10.17;;;4.67;;
11522;SDS011;70090;43.208;27.904;2023-07-20T10:25:35;7.83;;;4.60;;
11522;SDS011;70090;43.208;27.904;2023-07-20T10:28:04;6.30;;;4.77;;
11522;SDS011;70090;43.208;27.904;2023-07-20T10:30:31;8.67;;;5.00;;
11522;SDS011;70090;43.208;27.904;2023-07-20T10:32:59;7.80;;;4.70;;
11522;SDS011;70090;43.208;27.904;2023-07-20T10:35:28;11.90;;;5.97;;
11522;SDS011;70090;43.208;27.904;2023-07-20T10:37:59;8.10;;;4.73;;
11522;SDS011;70090;43.208;27.904;2023-07-20T10:40:29;10.10;;;4.93;;
11522;SDS011;70090;43.208;27.904;2023-07-20T10:43:01;10.17;;;5.27;;
11522;SDS011;70090;43.208;27.904;2023-07-20T10:45:33;11.83;;;5.40;;
11522;SDS011;70090;43.208;27.904;2023-07-20T10:48:02;8.10;;;5.50;;
11522;SDS011;70090;43.208;27.904;2023-07-20T10:50:30;13.27;;;5.70;;
11522;SDS011;70090;43.208;27.904;2023-07-20T10:53:05;6.70;;;4.90;;
11522;SDS011;70090;43.208;27.904;2023-07-20T10:55:38;7.73;;;5.20;;
11522;SDS011;70090;43.208;27.904;2023-07-20T10:58:08;7.73;;;5.10;;
11522;SDS011;70090;43.208;27.904;2023-07-20T11:00:37;10.97;;;5.60;;
11522;SDS011;70090;43.208;27.904;2023-07-20T11:03:04;12.27;;;5.67;;
11522;SDS011;70090;43.208;27.904;2023-07-20T11:05:31;9.03;;;5.37;;
11522;SDS011;70090;43.208;27.904;2023-07-20T11:07:59;9.00;;;5.17;;
11522;SDS011;70090;43.208;27.904;2023-07-20T11:10:26;10.20;;;5.10;;
11522;SDS011;70090;43.208;27.904;2023-07-20T11:15:46;8.30;;;4.80;;
11522;SDS011;70090;43.208;27.904;2023-07-20T11:18:14;7.93;;;4.63;;
11522;SDS011;70090;43.208;27.904;2023-07-20T11:20:41;10.87;;;4.40;;
11522;SDS011;70090;43.208;27.904;2023-07-20T11:23:08;8.60;;;4.40;;
11522;SDS011;70090;43.208;27.904;2023-07-20T11:25:37;8.70;;;4.67;;
11522;SDS011;70090;43.208;27.904;2023-07-20T11:28:06;9.93;;;4.87;;
11522;SDS011;70090;43.208;27.904;2023-07-20T11:30:36;11.93;;;5.70;;
11522;SDS011;70090;43.208;27.904;2023-07-20T11:33:03;9.07;;;5.00;;
11522;SDS011;70090;43.208;27.904;2023-07-20T11:35:31;14.47;;;5.80;;
11522;SDS011;70090;43.208;27.904;2023-07-20T11:38:01;14.67;;;6.47;;
11522;SDS011;70090;43.208;27.904;2023-07-20T11:40:28;16.40;;;5.80;;
11522;SDS011;70090;43.208;27.904;2023-07-20T11:42:55;12.60;;;5.30;;
11522;SDS011;70090;43.208;27.904;2023-07-20T11:45:22;10.60;;;5.97;;
11522;SDS011;70090;43.208;27.904;2023-07-20T11:47:50;11.27;;;5.70;;
11522;SDS011;70090;43.208;27.904;2023-07-20T11:50:17;10.40;;;5.90;;
11522;SDS011;70090;43.208;27.904;2023-07-20T11:52:44;12.10;;;5.43;;
11522;SDS011;70090;43.208;27.904;2023-07-20T11:55:11;10.13;;;5.90;;
11522;SDS011;70090;43.208;27.904;2023-07-20T11:57:38;10.47;;;6.00;;
11522;SDS011;70090;43.208;27.904;2023-07-20T12:00:06;10.73;;;6.40;;
11522;SDS011;70090;43.208;27.904;2023-07-20T12:02:36;11.73;;;6.20;;
11522;SDS011;70090;43.208;27.904;2023-07-20T12:05:05;10.70;;;5.77;;
11522;SDS011;70090;43.208;27.904;2023-07-20T12:07:35;14.80;;;7.27;;
11522;SDS011;70090;43.208;27.904;2023-07-20T12:10:04;15.40;;;5.73;;
11522;SDS011;70090;43.208;27.904;2023-07-20T12:12:32;13.27;;;6.17;;
11522;SDS011;70090;43.208;27.904;2023-07-20T12:15:12;11.50;;;5.93;;
11522;SDS011;70090;43.208;27.904;2023-07-20T12:17:41;13.57;;;6.37;;
11522;SDS011;70090;43.208;27.904;2023-07-20T12:20:11;8.23;;;5.20;;
11522;SDS011;70090;43.208;27.904;2023-07-20T12:22:39;11.67;;;5.90;;
11522;SDS011;70090;43.208;27.904;2023-07-20T12:25:07;12.70;;;6.03;;
11522;SDS011;70090;43.208;27.904;2023-07-20T12:27:35;11.43;;;6.40;;
11522;SDS011;70090;43.208;27.904;2023-07-20T12:30:03;9.20;;;5.57;;
11522;SDS011;70090;43.208;27.904;2023-07-20T12:32:31;12.43;;;6.03;;
11522;SDS011;70090;43.208;27.904;2023-07-20T12:34:59;11.97;;;6.27;;
11522;SDS011;70090;43.208;27.904;2023-07-20T12:37:27;12.57;;;6.13;;
11522;SDS011;70090;43.208;27.904;2023-07-20T12:39:55;15.03;;;5.63;;
11522;SDS011;70090;43.208;27.904;2023-07-20T12:42:21;10.93;;;5.37;;
11522;SDS011;70090;43.208;27.904;2023-07-20T12:44:48;13.73;;;5.53;;
11522;SDS011;70090;43.208;27.904;2023-07-20T12:47:16;13.10;;;6.00;;
11522;SDS011;70090;43.208;27.904;2023-07-20T12:49:43;10.27;;;6.40;;
11522;SDS011;70090;43.208;27.904;2023-07-20T12:52:10;10.90;;;5.83;;
11522;SDS011;70090;43.208;27.904;2023-07-20T12:54:38;12.13;;;6.20;;
11522;SDS011;70090;43.208;27.904;2023-07-20T12:57:05;9.23;;;5.40;;
11522;SDS011;70090;43.208;27.904;2023-07-20T12:59:32;13.27;;;5.53;;
11522;SDS011;70090;43.208;27.904;2023-07-20T13:01:59;9.13;;;5.60;;
11522;SDS011;70090;43.208;27.904;2023-07-20T13:04:26;13.10;;;5.37;;
11522;SDS011;70090;43.208;27.904;2023-07-20T13:06:53;9.83;;;5.67;;
11522;SDS011;70090;43.208;27.904;2023-07-20T13:09:20;10.50;;;5.80;;
11522;SDS011;70090;43.208;27.904;2023-07-20T13:11:49;11.63;;;5.37;;
11522;SDS011;70090;43.208;27.904;2023-07-20T13:14:16;9.10;;;5.57;;
11522;SDS011;70090;43.208;27.904;2023-07-20T13:16:43;9.10;;;5.47;;
11522;SDS011;70090;43.208;27.904;2023-07-20T13:19:10;13.37;;;6.00;;
11522;SDS011;70090;43.208;27.904;2023-07-20T13:21:37;13.53;;;6.07;;
11522;SDS011;70090;43.208;27.904;2023-07-20T13:24:05;11.00;;;5.97;;
11522;SDS011;70090;43.208;27.904;2023-07-20T13:26:32;12.93;;;6.10;;
11522;SDS011;70090;43.208;27.904;2023-07-20T13:29:00;13.23;;;5.80;;
11522;SDS011;70090;43.208;27.904;2023-07-20T13:31:27;13.10;;;6.17;;
11522;SDS011;70090;43.208;27.904;2023-07-20T13:33:54;12.00;;;5.50;;
11522;SDS011;70090;43.208;27.904;2023-07-20T13:36:21;11.60;;;5.70;;
11522;SDS011;70090;43.208;27.904;2023-07-20T13:38:48;8.10;;;5.67;;
11522;SDS011;70090;43.208;27.904;2023-07-20T13:41:15;14.17;;;6.43;;
11522;SDS011;70090;43.208;27.904;2023-07-20T13:43:42;8.60;;;5.87;;
11522;SDS011;70090;43.208;27.904;2023-07-20T13:46:10;8.27;;;5.73;;
11522;SDS011;70090;43.208;27.904;2023-07-20T13:48:37;11.13;;;6.20;;
11522;SDS011;70090;43.208;27.904;2023-07-20T13:51:04;10.27;;;6.03;;
11522;SDS011;70090;43.208;27.904;2023-07-20T13:53:31;11.77;;;6.67;;
11522;SDS011;70090;43.208;27.904;2023-07-20T13:55:58;9.97;;;6.00;;
11522;SDS011;70090;43.208;27.904;2023-07-20T13:58:24;8.00;;;5.80;;
11522;SDS011;70090;43.208;27.904;2023-07-20T14:00:51;9.67;;;6.23;;
11522;SDS011;70090;43.208;27.904;2023-07-20T14:03:19;8.07;;;5.90;;
11522;SDS011;70090;43.208;27.904;2023-07-20T14:05:46;12.33;;;5.93;;
11522;SDS011;70090;43.208;27.904;2023-07-20T14:08:14;13.03;;;6.53;;
11522;SDS011;70090;43.208;27.904;2023-07-20T14:10:40;9.87;;;6.50;;
11522;SDS011;70090;43.208;27.904;2023-07-20T14:13:07;10.57;;;6.40;;
11522;SDS011;70090;43.208;27.904;2023-07-20T14:15:34;8.13;;;6.90;;
11522;SDS011;70090;43.208;27.904;2023-07-20T14:18:01;12.30;;;6.60;;
11522;SDS011;70090;43.208;27.904;2023-07-20T14:20:30;8.40;;;6.30;;
11522;SDS011;70090;43.208;27.904;2023-07-20T14:22:56;9.83;;;7.37;;
11522;SDS011;70090;43.208;27.904;2023-07-20T14:25:23;11.47;;;7.00;;
11522;SDS011;70090;43.208;27.904;2023-07-20T14:27:50;11.03;;;6.70;;
11522;SDS011;70090;43.208;27.904;2023-07-20T14:30:17;13.03;;;7.23;;